This is the latest recevied weather packets stored in our database for station/object WA7ABU-29. If no packets are shown the sender has not sent any weather packets the latest 10 day(s).
| Time | Temp. | Humidity | Pressure | Rain* | Wind** | Luminosity | Snow |
|---|---|---|---|---|---|---|---|
| 1777548953 | 8.33° C | 76% | 1000.3 hPa | 0 mm | - | - | - |
| 1777547808 | 8.33° C | 75% | 1000.3 hPa | 0 mm | - | - | - |
| 1777547437 | 8.33° C | 72% | 1000.3 hPa | 0 mm | - | - | - |
| 1777547415 | 8.33° C | 72% | 1000.3 hPa | 0 mm | - | - | - |
| 1777547157 | 8.33° C | 71% | 1000.3 hPa | 0 mm | - | - | - |
| 1777545544 | 8.33° C | 73% | 1000.3 hPa | 0 mm | - | - | - |
| 1777544769 | 9.44° C | 69% | 1000.3 hPa | 0 mm | - | - | - |
| 1777544488 | 8.89° C | 70% | 1000.3 hPa | 0 mm | - | - | - |
| 1777544116 | 9.44° C | 70% | 1000.3 hPa | 0 mm | - | - | - |
| 1777541665 | 9.44° C | 71% | 1000.3 hPa | 0 mm | - | - | - |
| 1777540483 | 9.44° C | 74% | 1000.7 hPa | 0 mm | - | - | - |
| 1777540079 | 10° C | 73% | 1000.7 hPa | 0 mm | - | - | - |
| 1777538684 | 10° C | 75% | 1000.7 hPa | 0 mm | - | - | - |
| 1777537595 | 10° C | 75% | 1000.7 hPa | 0 mm | - | - | - |
| 1777536039 | 10.56° C | 74% | 1000.7 hPa | 0 mm | - | - | - |
| 1777534451 | 11.67° C | 71% | 1001 hPa | 0 mm | - | - | - |
| 1777534204 | 11.67° C | 72% | 1000.7 hPa | 0 mm | - | - | - |
| 1777533956 | 11.67° C | 71% | 1000.7 hPa | 0 mm | - | - | - |
| 1777533709 | 11.67° C | 71% | 1001 hPa | 0 mm | - | - | - |
| 1777532438 | 12.78° C | 69% | 1001 hPa | 0 mm | - | - | - |
| 1777531920 | 12.78° C | 68% | 1000.7 hPa | 0 mm | - | - | - |
| 1777531383 | 12.78° C | 67% | 1001 hPa | 0 mm | - | - | - |
| 1777531135 | 12.78° C | 67% | 1000.7 hPa | 0 mm | - | - | - |
| 1777529900 | 11.67° C | 73% | 1001.4 hPa | 0 mm | - | - | - |
| 1777529114 | 12.22° C | 72% | 1001 hPa | 0 mm | - | - | - |
* Rain latest hour (hover to see other rain measurements)
** Current wind speed in m/s (hover to see current wind gust speed)